sensor_id;sensor_type;location;lat;lon;timestamp;pressure;altitude;pressure_sealevel;temperature;humidity
4022;BME280;2025;48.260;16.432;2023-11-21T00:01:20;99362.22;;;8.38;71.94
4022;BME280;2025;48.260;16.432;2023-11-21T00:03:48;99362.84;;;8.32;71.89
4022;BME280;2025;48.260;16.432;2023-11-21T00:06:15;99358.59;;;8.31;71.54
4022;BME280;2025;48.260;16.432;2023-11-21T00:08:42;99359.56;;;8.30;71.70
4022;BME280;2025;48.260;16.432;2023-11-21T00:11:09;99354.50;;;8.36;71.17
4022;BME280;2025;48.260;16.432;2023-11-21T00:13:36;99355.81;;;8.32;71.28
4022;BME280;2025;48.260;16.432;2023-11-21T00:16:03;99353.22;;;8.40;71.18
4022;BME280;2025;48.260;16.432;2023-11-21T00:18:30;99345.34;;;8.40;70.64
4022;BME280;2025;48.260;16.432;2023-11-21T00:20:59;99343.03;;;8.46;70.33
4022;BME280;2025;48.260;16.432;2023-11-21T00:23:26;99346.16;;;8.33;71.21
4022;BME280;2025;48.260;16.432;2023-11-21T00:25:53;99346.63;;;8.12;72.03
4022;BME280;2025;48.260;16.432;2023-11-21T00:28:19;99353.19;;;8.16;72.00
4022;BME280;2025;48.260;16.432;2023-11-21T00:30:47;99351.34;;;7.92;73.44
4022;BME280;2025;48.260;16.432;2023-11-21T00:33:14;99340.34;;;7.72;74.00
4022;BME280;2025;48.260;16.432;2023-11-21T00:35:41;99346.06;;;7.67;74.89
4022;BME280;2025;48.260;16.432;2023-11-21T09:31:35;99417.50;;;10.12;69.30
4022;BME280;2025;48.260;16.432;2023-11-21T09:34:06;99410.66;;;10.03;67.42
4022;BME280;2025;48.260;16.432;2023-11-21T09:36:33;99414.56;;;9.84;67.74
4022;BME280;2025;48.260;16.432;2023-11-21T09:39:00;99409.84;;;9.71;68.62
4022;BME280;2025;48.260;16.432;2023-11-21T09:41:31;99409.25;;;9.61;69.09
4022;BME280;2025;48.260;16.432;2023-11-21T09:44:02;99402.69;;;9.57;68.91
4022;BME280;2025;48.260;16.432;2023-11-21T09:46:40;99417.34;;;9.51;70.90
4022;BME280;2025;48.260;16.432;2023-11-21T09:49:09;99412.41;;;9.48;70.98
4022;BME280;2025;48.260;16.432;2023-11-21T09:51:39;99403.13;;;9.60;69.50
4022;BME280;2025;48.260;16.432;2023-11-21T09:54:07;99412.63;;;9.69;69.41
4022;BME280;2025;48.260;16.432;2023-11-21T09:56:37;99405.06;;;9.75;69.00
4022;BME280;2025;48.260;16.432;2023-11-21T09:59:05;99406.25;;;9.64;67.25
4022;BME280;2025;48.260;16.432;2023-11-21T10:01:37;99405.38;;;9.71;68.00
4022;BME280;2025;48.260;16.432;2023-11-21T10:04:05;99405.34;;;9.80;68.94
4022;BME280;2025;48.260;16.432;2023-11-21T10:06:38;99402.66;;;9.88;67.50
4022;BME280;2025;48.260;16.432;2023-11-21T10:09:06;99392.47;;;9.93;65.77
4022;BME280;2025;48.260;16.432;2023-11-21T10:11:39;99401.69;;;9.89;66.76
4022;BME280;2025;48.260;16.432;2023-11-21T10:14:08;99402.63;;;9.96;69.93
4022;BME280;2025;48.260;16.432;2023-11-21T10:16:40;99395.00;;;10.09;65.84
4022;BME280;2025;48.260;16.432;2023-11-21T10:19:10;99395.97;;;10.08;65.80
4022;BME280;2025;48.260;16.432;2023-11-21T10:21:39;99390.16;;;10.21;65.30
4022;BME280;2025;48.260;16.432;2023-11-21T10:24:07;99394.63;;;10.12;66.50
4022;BME280;2025;48.260;16.432;2023-11-21T10:26:34;99385.53;;;10.23;65.08
4022;BME280;2025;48.260;16.432;2023-11-21T10:29:02;99399.09;;;10.12;64.49
4022;BME280;2025;48.260;16.432;2023-11-21T10:31:30;99390.03;;;10.15;65.04
4022;BME280;2025;48.260;16.432;2023-11-21T10:34:15;99399.81;;;10.29;65.94
4022;BME280;2025;48.260;16.432;2023-11-21T10:36:44;99387.59;;;10.28;65.13
4022;BME280;2025;48.260;16.432;2023-11-21T10:39:14;99389.84;;;10.16;66.07
4022;BME280;2025;48.260;16.432;2023-11-21T10:41:43;99394.69;;;10.04;65.44
4022;BME280;2025;48.260;16.432;2023-11-21T10:44:10;99399.25;;;10.10;65.60
4022;BME280;2025;48.260;16.432;2023-11-21T10:46:40;99390.78;;;10.23;65.31
4022;BME280;2025;48.260;16.432;2023-11-21T10:49:10;99392.13;;;10.19;64.07
4022;BME280;2025;48.260;16.432;2023-11-21T10:51:43;99403.75;;;10.25;64.92
4022;BME280;2025;48.260;16.432;2023-11-21T10:54:10;99400.09;;;10.34;66.02
4022;BME280;2025;48.260;16.432;2023-11-21T10:56:39;99402.38;;;10.37;64.82
4022;BME280;2025;48.260;16.432;2023-11-21T10:59:09;99395.56;;;10.20;64.88
4022;BME280;2025;48.260;16.432;2023-11-21T11:01:41;99400.75;;;10.28;65.18
4022;BME280;2025;48.260;16.432;2023-11-21T11:04:11;99392.81;;;10.13;65.25
4022;BME280;2025;48.260;16.432;2023-11-21T11:06:43;99394.19;;;10.32;67.16
4022;BME280;2025;48.260;16.432;2023-11-21T11:09:13;99394.38;;;10.30;64.54
4022;BME280;2025;48.260;16.432;2023-11-21T11:11:42;99394.19;;;10.32;64.66
4022;BME280;2025;48.260;16.432;2023-11-21T11:14:11;99390.91;;;10.30;65.16
4022;BME280;2025;48.260;16.432;2023-11-21T11:16:39;99391.41;;;10.25;66.03
4022;BME280;2025;48.260;16.432;2023-11-21T11:19:06;99391.59;;;10.24;65.45
4022;BME280;2025;48.260;16.432;2023-11-21T11:21:45;99393.94;;;10.19;65.34
4022;BME280;2025;48.260;16.432;2023-11-21T11:24:48;99390.13;;;9.98;66.47
4022;BME280;2025;48.260;16.432;2023-11-21T11:27:26;99387.66;;;9.97;68.14
4022;BME280;2025;48.260;16.432;2023-11-21T11:30:07;99374.38;;;9.90;66.14
4022;BME280;2025;48.260;16.432;2023-11-21T11:32:46;99373.34;;;9.99;67.22
4022;BME280;2025;48.260;16.432;2023-11-21T11:35:22;99372.53;;;9.99;68.09
4022;BME280;2025;48.260;16.432;2023-11-21T11:37:53;99377.97;;;9.97;65.80
4022;BME280;2025;48.260;16.432;2023-11-21T11:40:20;99373.88;;;9.95;66.78
4022;BME280;2025;48.260;16.432;2023-11-21T11:42:56;99378.66;;;9.91;68.39
4022;BME280;2025;48.260;16.432;2023-11-21T11:45:26;99386.50;;;9.99;67.11
4022;BME280;2025;48.260;16.432;2023-11-21T11:48:00;99380.94;;;9.94;68.08
4022;BME280;2025;48.260;16.432;2023-11-21T11:50:27;99379.78;;;9.97;66.43
4022;BME280;2025;48.260;16.432;2023-11-21T11:53:12;99378.56;;;10.07;66.59
4022;BME280;2025;48.260;16.432;2023-11-21T11:55:39;99376.81;;;10.46;65.30
4022;BME280;2025;48.260;16.432;2023-11-21T11:58:07;99380.31;;;10.61;64.76
4022;BME280;2025;48.260;16.432;2023-11-21T12:00:34;99379.13;;;10.64;66.69
4022;BME280;2025;48.260;16.432;2023-11-21T12:03:07;99381.53;;;11.18;65.64
4022;BME280;2025;48.260;16.432;2023-11-21T12:05:36;99375.53;;;11.24;64.20
4022;BME280;2025;48.260;16.432;2023-11-21T12:08:06;99379.00;;;11.25;64.67
4022;BME280;2025;48.260;16.432;2023-11-21T12:10:34;99378.06;;;11.32;63.98
4022;BME280;2025;48.260;16.432;2023-11-21T12:13:03;99377.16;;;11.25;64.06
4022;BME280;2025;48.260;16.432;2023-11-21T12:15:33;99377.25;;;11.02;64.46
4022;BME280;2025;48.260;16.432;2023-11-21T12:18:00;99382.25;;;10.97;64.76
4022;BME280;2025;48.260;16.432;2023-11-21T12:20:28;99389.16;;;10.83;64.67
4022;BME280;2025;48.260;16.432;2023-11-21T12:22:56;99385.09;;;10.58;65.45
4022;BME280;2025;48.260;16.432;2023-11-21T12:25:27;99380.66;;;10.58;65.67
4022;BME280;2025;48.260;16.432;2023-11-21T12:27:56;99377.63;;;10.46;66.11
4022;BME280;2025;48.260;16.432;2023-11-21T12:30:24;99383.63;;;10.40;65.00
4022;BME280;2025;48.260;16.432;2023-11-21T12:32:55;99380.88;;;10.33;66.17
4022;BME280;2025;48.260;16.432;2023-11-21T12:35:25;99381.03;;;10.32;67.54
4022;BME280;2025;48.260;16.432;2023-11-21T12:37:53;99378.69;;;10.37;67.29
4022;BME280;2025;48.260;16.432;2023-11-21T12:40:21;99373.78;;;10.34;67.13
4022;BME280;2025;48.260;16.432;2023-11-21T12:42:53;99373.50;;;10.29;68.04
4022;BME280;2025;48.260;16.432;2023-11-21T12:45:21;99367.22;;;10.30;68.02
4022;BME280;2025;48.260;16.432;2023-11-21T12:47:48;99370.44;;;10.17;68.72
4022;BME280;2025;48.260;16.432;2023-11-21T12:50:18;99374.53;;;10.20;69.64
4022;BME280;2025;48.260;16.432;2023-11-21T12:52:49;99375.44;;;10.27;69.10
4022;BME280;2025;48.260;16.432;2023-11-21T12:55:17;99378.59;;;10.22;70.72
4022;BME280;2025;48.260;16.432;2023-11-21T12:57:49;99383.00;;;10.30;68.45
4022;BME280;2025;48.260;16.432;2023-11-21T13:00:20;99374.44;;;10.28;70.26
4022;BME280;2025;48.260;16.432;2023-11-21T13:02:56;99379.53;;;10.06;69.00
4022;BME280;2025;48.260;16.432;2023-11-21T13:05:25;99378.91;;;10.04;69.84
4022;BME280;2025;48.260;16.432;2023-11-21T13:07:52;99378.84;;;10.12;69.15
4022;BME280;2025;48.260;16.432;2023-11-21T13:10:21;99378.38;;;10.09;70.29
4022;BME280;2025;48.260;16.432;2023-11-21T13:12:52;99374.28;;;10.06;69.25
4022;BME280;2025;48.260;16.432;2023-11-21T13:15:20;99375.28;;;10.05;69.77
4022;BME280;2025;48.260;16.432;2023-11-21T13:17:47;99382.81;;;10.08;69.34
4022;BME280;2025;48.260;16.432;2023-11-21T13:20:16;99382.97;;;10.07;70.31
4022;BME280;2025;48.260;16.432;2023-11-21T13:22:47;99372.78;;;10.12;69.75
4022;BME280;2025;48.260;16.432;2023-11-21T13:25:15;99367.69;;;10.10;70.35
4022;BME280;2025;48.260;16.432;2023-11-21T13:27:43;99367.69;;;10.10;70.17
4022;BME280;2025;48.260;16.432;2023-11-21T13:30:13;99371.34;;;10.01;70.38
4022;BME280;2025;48.260;16.432;2023-11-21T13:32:45;99368.09;;;9.99;70.57
4022;BME280;2025;48.260;16.432;2023-11-21T13:35:15;99380.78;;;9.96;70.60
4022;BME280;2025;48.260;16.432;2023-11-21T13:37:48;99379.66;;;9.90;71.06
4022;BME280;2025;48.260;16.432;2023-11-21T13:40:22;99386.28;;;10.55;69.22
4022;BME280;2025;48.260;16.432;2023-11-21T13:42:53;99375.19;;;11.12;67.78
4022;BME280;2025;48.260;16.432;2023-11-21T13:45:22;99376.19;;;11.26;65.73
4022;BME280;2025;48.260;16.432;2023-11-21T13:47:51;99374.81;;;11.45;65.44
4022;BME280;2025;48.260;16.432;2023-11-21T13:50:22;99376.50;;;11.53;64.87
4022;BME280;2025;48.260;16.432;2023-11-21T13:52:51;99392.50;;;11.51;65.00
4022;BME280;2025;48.260;16.432;2023-11-21T13:55:19;99390.06;;;11.50;64.56
4022;BME280;2025;48.260;16.432;2023-11-21T13:57:51;99396.97;;;10.91;67.06
4022;BME280;2025;48.260;16.432;2023-11-21T14:00:18;99397.47;;;10.34;69.51
4022;BME280;2025;48.260;16.432;2023-11-21T14:03:09;99406.25;;;9.95;70.70
4022;BME280;2025;48.260;16.432;2023-11-21T14:05:44;99403.63;;;9.64;72.42
4022;BME280;2025;48.260;16.432;2023-11-21T14:08:13;99409.91;;;9.55;72.85
4022;BME280;2025;48.260;16.432;2023-11-21T14:10:42;99402.13;;;9.30;73.71
4022;BME280;2025;48.260;16.432;2023-11-21T14:13:10;99401.03;;;9.16;74.85
4022;BME280;2025;48.260;16.432;2023-11-21T14:15:39;99409.72;;;9.08;76.03
4022;BME280;2025;48.260;16.432;2023-11-21T14:18:10;99400.38;;;9.06;76.35
4022;BME280;2025;48.260;16.432;2023-11-21T14:20:40;99401.88;;;9.00;76.45
4022;BME280;2025;48.260;16.432;2023-11-21T14:23:07;99407.28;;;8.99;76.88
4022;BME280;2025;48.260;16.432;2023-11-21T14:25:36;99405.31;;;8.93;77.23
4022;BME280;2025;48.260;16.432;2023-11-21T14:28:05;99404.50;;;8.92;77.44
4022;BME280;2025;48.260;16.432;2023-11-21T14:30:32;99411.44;;;8.77;78.35
4022;BME280;2025;48.260;16.432;2023-11-21T14:33:01;99413.22;;;8.76;78.45
4022;BME280;2025;48.260;16.432;2023-11-21T14:35:30;99415.03;;;8.76;78.85
4022;BME280;2025;48.260;16.432;2023-11-21T14:37:58;99420.97;;;8.70;79.55
4022;BME280;2025;48.260;16.432;2023-11-21T14:40:26;99426.38;;;8.68;79.42
4022;BME280;2025;48.260;16.432;2023-11-21T14:42:59;99427.84;;;8.62;79.91
4022;BME280;2025;48.260;16.432;2023-11-21T14:45:26;99436.53;;;8.55;80.05
4022;BME280;2025;48.260;16.432;2023-11-21T14:47:54;99429.97;;;8.59;79.54
4022;BME280;2025;48.260;16.432;2023-11-21T14:50:33;99438.19;;;8.56;79.71
4022;BME280;2025;48.260;16.432;2023-11-21T14:53:17;99425.06;;;8.56;79.67
4022;BME280;2025;48.260;16.432;2023-11-21T14:56:05;99432.44;;;8.52;80.33
4022;BME280;2025;48.260;16.432;2023-11-21T14:58:33;99432.44;;;8.44;81.29
4022;BME280;2025;48.260;16.432;2023-11-21T15:01:00;99436.38;;;8.40;81.00
4022;BME280;2025;48.260;16.432;2023-11-21T15:03:27;99439.31;;;8.37;81.43
4022;BME280;2025;48.260;16.432;2023-11-21T15:06:15;99426.66;;;8.32;80.80
4022;BME280;2025;48.260;16.432;2023-11-21T15:08:49;99441.09;;;8.28;81.15
4022;BME280;2025;48.260;16.432;2023-11-21T15:11:21;99444.69;;;8.27;81.45
4022;BME280;2025;48.260;16.432;2023-11-21T15:13:53;99442.06;;;8.19;82.13
4022;BME280;2025;48.260;16.432;2023-11-21T15:16:20;99444.16;;;8.15;82.13
4022;BME280;2025;48.260;16.432;2023-11-21T15:18:47;99436.16;;;8.17;81.87
4022;BME280;2025;48.260;16.432;2023-11-21T15:21:16;99437.91;;;8.08;82.38
4022;BME280;2025;48.260;16.432;2023-11-21T15:23:43;99436.75;;;7.94;82.79
4022;BME280;2025;48.260;16.432;2023-11-21T15:26:10;99440.31;;;7.85;83.55
4022;BME280;2025;48.260;16.432;2023-11-21T15:28:38;99446.22;;;7.87;84.01
4022;BME280;2025;48.260;16.432;2023-11-21T15:31:05;99437.34;;;7.72;85.06
4022;BME280;2025;48.260;16.432;2023-11-21T15:33:33;99442.53;;;7.64;85.75
4022;BME280;2025;48.260;16.432;2023-11-21T15:36:02;99447.59;;;7.57;86.65
4022;BME280;2025;48.260;16.432;2023-11-21T15:38:31;99452.13;;;7.47;87.55
4022;BME280;2025;48.260;16.432;2023-11-21T15:40:58;99455.25;;;7.50;87.79
4022;BME280;2025;48.260;16.432;2023-11-21T15:43:25;99450.19;;;7.49;88.04
4022;BME280;2025;48.260;16.432;2023-11-21T15:45:53;99443.75;;;7.43;88.44
4022;BME280;2025;48.260;16.432;2023-11-21T15:48:21;99449.16;;;7.42;88.77
4022;BME280;2025;48.260;16.432;2023-11-21T15:50:48;99451.13;;;7.39;89.34
4022;BME280;2025;48.260;16.432;2023-11-21T15:53:17;99452.56;;;7.34;89.79
4022;BME280;2025;48.260;16.432;2023-11-21T15:55:46;99458.47;;;7.36;90.03
4022;BME280;2025;48.260;16.432;2023-11-21T15:58:13;99457.75;;;7.26;90.60
4022;BME280;2025;48.260;16.432;2023-11-21T16:00:40;99462.69;;;7.29;91.15
4022;BME280;2025;48.260;16.432;2023-11-21T16:03:07;99466.06;;;7.21;91.68
4022;BME280;2025;48.260;16.432;2023-11-21T16:05:35;99468.03;;;7.19;91.71
4022;BME280;2025;48.260;16.432;2023-11-21T16:08:02;99472.13;;;7.22;92.39
4022;BME280;2025;48.260;16.432;2023-11-21T16:10:29;99472.19;;;7.30;92.27
4022;BME280;2025;48.260;16.432;2023-11-21T16:12:58;99478.41;;;7.29;92.46
4022;BME280;2025;48.260;16.432;2023-11-21T16:15:25;99474.28;;;7.26;93.00
4022;BME280;2025;48.260;16.432;2023-11-21T16:17:52;99480.56;;;7.33;93.18
4022;BME280;2025;48.260;16.432;2023-11-21T16:20:19;99488.75;;;7.38;92.94
4022;BME280;2025;48.260;16.432;2023-11-21T16:22:47;99492.06;;;7.41;93.30
4022;BME280;2025;48.260;16.432;2023-11-21T16:25:14;99492.22;;;7.39;93.95
4022;BME280;2025;48.260;16.432;2023-11-21T16:27:41;99494.53;;;7.42;93.90
4022;BME280;2025;48.260;16.432;2023-11-21T16:30:11;99500.94;;;7.48;93.68
4022;BME280;2025;48.260;16.432;2023-11-21T16:32:39;99499.09;;;7.40;94.19
4022;BME280;2025;48.260;16.432;2023-11-21T16:35:08;99507.31;;;7.45;93.63
4022;BME280;2025;48.260;16.432;2023-11-21T16:37:35;99506.03;;;7.49;93.42
4022;BME280;2025;48.260;16.432;2023-11-21T16:40:02;99508.97;;;7.46;92.86
4022;BME280;2025;48.260;16.432;2023-11-21T16:42:34;99515.84;;;7.47;92.21
4022;BME280;2025;48.260;16.432;2023-11-21T16:45:04;99515.97;;;7.46;92.17
4022;BME280;2025;48.260;16.432;2023-11-21T16:47:32;99516.81;;;7.46;92.13
4022;BME280;2025;48.260;16.432;2023-11-21T16:49:59;99525.28;;;7.40;92.23
4022;BME280;2025;48.260;16.432;2023-11-21T16:52:26;99528.72;;;7.41;92.15
4022;BME280;2025;48.260;16.432;2023-11-21T16:54:53;99535.91;;;7.38;92.50
4022;BME280;2025;48.260;16.432;2023-11-21T16:57:20;99534.44;;;7.36;92.46
4022;BME280;2025;48.260;16.432;2023-11-21T16:59:47;99538.81;;;7.27;92.94
4022;BME280;2025;48.260;16.432;2023-11-21T17:02:16;99547.03;;;7.32;92.24
4022;BME280;2025;48.260;16.432;2023-11-21T17:04:45;99544.69;;;7.29;92.46
4022;BME280;2025;48.260;16.432;2023-11-21T17:07:15;99554.00;;;7.24;92.62
4022;BME280;2025;48.260;16.432;2023-11-21T17:09:42;99545.53;;;7.30;92.24
4022;BME280;2025;48.260;16.432;2023-11-21T17:12:09;99545.16;;;7.25;92.41
4022;BME280;2025;48.260;16.432;2023-11-21T17:14:36;99549.13;;;7.29;92.26
4022;BME280;2025;48.260;16.432;2023-11-21T17:17:05;99551.06;;;7.27;92.32
4022;BME280;2025;48.260;16.432;2023-11-21T17:19:34;99553.91;;;7.33;91.72
4022;BME280;2025;48.260;16.432;2023-11-21T17:22:02;99556.53;;;7.33;91.72
4022;BME280;2025;48.260;16.432;2023-11-21T17:24:30;99557.19;;;7.35;91.59
4022;BME280;2025;48.260;16.432;2023-11-21T17:26:58;99551.13;;;7.35;91.99
4022;BME280;2025;48.260;16.432;2023-11-21T17:29:25;99552.41;;;7.31;92.01
4022;BME280;2025;48.260;16.432;2023-11-21T17:31:53;99554.56;;;7.35;91.42
4022;BME280;2025;48.260;16.432;2023-11-21T17:34:20;99555.09;;;7.39;91.12
4022;BME280;2025;48.260;16.432;2023-11-21T17:36:46;99559.03;;;7.43;90.48
4022;BME280;2025;48.260;16.432;2023-11-21T17:39:14;99552.16;;;7.42;90.53
4022;BME280;2025;48.260;16.432;2023-11-21T17:41:43;99550.56;;;7.49;89.90
4022;BME280;2025;48.260;16.432;2023-11-21T17:44:10;99560.69;;;7.44;89.62
4022;BME280;2025;48.260;16.432;2023-11-21T17:46:38;99557.72;;;7.39;90.45
4022;BME280;2025;48.260;16.432;2023-11-21T17:49:05;99560.50;;;7.37;89.91
4022;BME280;2025;48.260;16.432;2023-11-21T17:51:37;99560.69;;;7.44;89.11
4022;BME280;2025;48.260;16.432;2023-11-21T17:54:05;99556.94;;;7.47;89.28
4022;BME280;2025;48.260;16.432;2023-11-21T17:56:34;99563.22;;;7.54;88.13
4022;BME280;2025;48.260;16.432;2023-11-21T17:59:01;99558.56;;;7.48;88.58
4022;BME280;2025;48.260;16.432;2023-11-21T18:01:35;99566.31;;;7.49;87.97
4022;BME280;2025;48.260;16.432;2023-11-21T18:04:03;99570.88;;;7.47;88.15
4022;BME280;2025;48.260;16.432;2023-11-21T18:06:31;99576.78;;;7.49;87.52
4022;BME280;2025;48.260;16.432;2023-11-21T18:08:58;99568.47;;;7.54;86.59
4022;BME280;2025;48.260;16.432;2023-11-21T18:11:26;99571.56;;;7.57;86.18
4022;BME280;2025;48.260;16.432;2023-11-21T18:13:54;99574.38;;;7.56;86.27
4022;BME280;2025;48.260;16.432;2023-11-21T18:16:21;99576.63;;;7.51;87.60
4022;BME280;2025;48.260;16.432;2023-11-21T18:18:48;99583.28;;;7.45;88.65
4022;BME280;2025;48.260;16.432;2023-11-21T18:21:16;99575.91;;;7.41;88.68
4022;BME280;2025;48.260;16.432;2023-11-21T18:23:43;99584.44;;;7.43;88.50
4022;BME280;2025;48.260;16.432;2023-11-21T18:26:16;99586.53;;;7.39;88.18
4022;BME280;2025;48.260;16.432;2023-11-21T18:28:43;99587.50;;;7.38;88.03
4022;BME280;2025;48.260;16.432;2023-11-21T18:31:11;99592.06;;;7.36;87.82
4022;BME280;2025;48.260;16.432;2023-11-21T18:33:40;99599.47;;;7.41;87.92
4022;BME280;2025;48.260;16.432;2023-11-21T18:36:07;99593.41;;;7.40;87.46
4022;BME280;2025;48.260;16.432;2023-11-21T18:38:34;99598.50;;;7.42;86.89
4022;BME280;2025;48.260;16.432;2023-11-21T18:41:02;99596.03;;;7.40;87.03
4022;BME280;2025;48.260;16.432;2023-11-21T18:43:29;99596.03;;;7.40;86.70
4022;BME280;2025;48.260;16.432;2023-11-21T18:45:56;99593.28;;;7.42;87.05
4022;BME280;2025;48.260;16.432;2023-11-21T18:48:24;99594.69;;;7.36;87.34
4022;BME280;2025;48.260;16.432;2023-11-21T18:50:51;99599.66;;;7.39;86.68
4022;BME280;2025;48.260;16.432;2023-11-21T18:53:20;99598.13;;;7.36;86.82
4022;BME280;2025;48.260;16.432;2023-11-21T18:55:47;99599.47;;;7.41;86.40
4022;BME280;2025;48.260;16.432;2023-11-21T18:58:14;99613.09;;;7.44;85.76
4022;BME280;2025;48.260;16.432;2023-11-21T19:00:42;99610.50;;;7.44;85.81
4022;BME280;2025;48.260;16.432;2023-11-21T19:03:09;99609.28;;;7.38;85.93
4022;BME280;2025;48.260;16.432;2023-11-21T19:05:37;99601.88;;;7.34;86.44
4022;BME280;2025;48.260;16.432;2023-11-21T19:08:05;99608.25;;;7.31;86.36
4022;BME280;2025;48.260;16.432;2023-11-21T19:10:32;99611.03;;;7.30;86.42
4022;BME280;2025;48.260;16.432;2023-11-21T19:13:00;99607.56;;;7.29;86.22
4022;BME280;2025;48.260;16.432;2023-11-21T19:15:29;99608.41;;;7.30;85.88
4022;BME280;2025;48.260;16.432;2023-11-21T19:17:56;99614.78;;;7.27;85.99
4022;BME280;2025;48.260;16.432;2023-11-21T19:20:24;99612.91;;;7.20;86.36
4022;BME280;2025;48.260;16.432;2023-11-21T19:22:53;99608.56;;;7.10;86.79
4022;BME280;2025;48.260;16.432;2023-11-21T19:25:20;99618.16;;;7.02;87.04
4022;BME280;2025;48.260;16.432;2023-11-21T19:27:48;99615.00;;;6.98;87.61
4022;BME280;2025;48.260;16.432;2023-11-21T19:30:16;99620.25;;;6.98;87.32
4022;BME280;2025;48.260;16.432;2023-11-21T19:32:43;99623.75;;;6.89;87.79
4022;BME280;2025;48.260;16.432;2023-11-21T19:35:10;99623.81;;;6.79;88.36
4022;BME280;2025;48.260;16.432;2023-11-21T19:37:37;99613.34;;;6.79;88.32
4022;BME280;2025;48.260;16.432;2023-11-21T19:40:07;99632.19;;;6.65;89.51
4022;BME280;2025;48.260;16.432;2023-11-21T19:42:34;99631.34;;;6.64;89.64
4022;BME280;2025;48.260;16.432;2023-11-21T19:45:02;99637.75;;;6.52;90.32
4022;BME280;2025;48.260;16.432;2023-11-21T19:47:29;99638.03;;;6.49;90.53
4022;BME280;2025;48.260;16.432;2023-11-21T19:50:01;99639.22;;;6.37;91.16
4022;BME280;2025;48.260;16.432;2023-11-21T19:52:29;99640.59;;;6.31;91.43
4022;BME280;2025;48.260;16.432;2023-11-21T19:54:56;99652.75;;;6.22;91.92
4022;BME280;2025;48.260;16.432;2023-11-21T19:57:24;99650.53;;;6.27;92.10
4022;BME280;2025;48.260;16.432;2023-11-21T19:59:51;99642.97;;;6.24;92.10
4022;BME280;2025;48.260;16.432;2023-11-21T20:02:20;99651.09;;;6.21;92.36
4022;BME280;2025;48.260;16.432;2023-11-21T20:04:47;99650.56;;;6.18;92.46
4022;BME280;2025;48.260;16.432;2023-11-21T20:07:14;99655.34;;;6.22;92.34
4022;BME280;2025;48.260;16.432;2023-11-21T20:09:46;99654.03;;;6.18;92.40
4022;BME280;2025;48.260;16.432;2023-11-21T20:12:15;99657.16;;;6.22;92.07
4022;BME280;2025;48.260;16.432;2023-11-21T20:14:43;99664.91;;;6.14;92.28
4022;BME280;2025;48.260;16.432;2023-11-21T20:17:11;99671.13;;;6.03;92.85
4022;BME280;2025;48.260;16.432;2023-11-21T20:19:40;99673.69;;;6.12;92.50
4022;BME280;2025;48.260;16.432;2023-11-21T20:22:08;99671.34;;;6.19;92.15
4022;BME280;2025;48.260;16.432;2023-11-21T20:24:35;99671.91;;;6.23;92.02
4022;BME280;2025;48.260;16.432;2023-11-21T20:27:03;99668.31;;;6.24;92.03
4022;BME280;2025;48.260;16.432;2023-11-21T20:29:30;99672.03;;;6.21;91.87
4022;BME280;2025;48.260;16.432;2023-11-21T20:32:00;99673.34;;;6.35;91.17
4022;BME280;2025;48.260;16.432;2023-11-21T20:34:30;99673.22;;;6.27;91.44
4022;BME280;2025;48.260;16.432;2023-11-21T20:36:58;99680.13;;;6.28;91.63
4022;BME280;2025;48.260;16.432;2023-11-21T20:39:25;99686.91;;;6.21;92.13
4022;BME280;2025;48.260;16.432;2023-11-21T20:41:52;99683.25;;;6.31;91.73
4022;BME280;2025;48.260;16.432;2023-11-21T20:44:19;99689.00;;;6.45;91.15
4022;BME280;2025;48.260;16.432;2023-11-21T20:46:48;99682.41;;;6.41;91.29
4022;BME280;2025;48.260;16.432;2023-11-21T20:49:17;99682.56;;;6.39;91.23
4022;BME280;2025;48.260;16.432;2023-11-21T20:51:44;99690.56;;;6.38;91.30
4022;BME280;2025;48.260;16.432;2023-11-21T20:54:11;99685.03;;;6.41;91.27
4022;BME280;2025;48.260;16.432;2023-11-21T20:56:38;99683.00;;;6.35;91.35
4022;BME280;2025;48.260;16.432;2023-11-21T20:59:06;99698.81;;;6.33;91.30
4022;BME280;2025;48.260;16.432;2023-11-21T21:01:34;99687.72;;;6.21;91.64
4022;BME280;2025;48.260;16.432;2023-11-21T21:04:01;99696.38;;;6.22;91.61
4022;BME280;2025;48.260;16.432;2023-11-21T21:06:30;99707.44;;;6.16;91.92
4022;BME280;2025;48.260;16.432;2023-11-21T21:08:57;99707.44;;;6.16;92.14
4022;BME280;2025;48.260;16.432;2023-11-21T21:11:24;99699.31;;;6.09;92.45
4022;BME280;2025;48.260;16.432;2023-11-21T21:13:51;99714.72;;;6.12;92.31
4022;BME280;2025;48.260;16.432;2023-11-21T21:16:19;99718.88;;;6.05;92.60
4022;BME280;2025;48.260;16.432;2023-11-21T21:18:51;99718.31;;;6.01;92.73
4022;BME280;2025;48.260;16.432;2023-11-21T21:21:18;99714.75;;;6.02;92.65
4022;BME280;2025;48.260;16.432;2023-11-21T21:23:47;99711.72;;;5.97;93.21
4022;BME280;2025;48.260;16.432;2023-11-21T21:26:15;99720.25;;;5.99;93.29
4022;BME280;2025;48.260;16.432;2023-11-21T21:28:42;99718.72;;;6.06;92.89
4022;BME280;2025;48.260;16.432;2023-11-21T21:31:09;99724.88;;;6.15;92.41
4022;BME280;2025;48.260;16.432;2023-11-21T21:33:37;99725.03;;;6.14;92.51
4022;BME280;2025;48.260;16.432;2023-11-21T21:36:04;99728.19;;;6.17;92.39
4022;BME280;2025;48.260;16.432;2023-11-21T21:38:31;99728.19;;;6.17;92.36
4022;BME280;2025;48.260;16.432;2023-11-21T21:41:00;99736.28;;;6.24;92.38
4022;BME280;2025;48.260;16.432;2023-11-21T21:43:27;99735.47;;;6.23;92.22
4022;BME280;2025;48.260;16.432;2023-11-21T21:45:54;99739.03;;;6.32;91.77
4022;BME280;2025;48.260;16.432;2023-11-21T21:48:21;99733.38;;;6.37;91.95
4022;BME280;2025;48.260;16.432;2023-11-21T21:50:48;99735.84;;;6.38;92.00
4022;BME280;2025;48.260;16.432;2023-11-21T21:53:15;99742.06;;;6.37;91.58
4022;BME280;2025;48.260;16.432;2023-11-21T21:55:42;99751.78;;;6.45;90.90
4022;BME280;2025;48.260;16.432;2023-11-21T21:58:10;99752.09;;;6.42;91.57
4022;BME280;2025;48.260;16.432;2023-11-21T22:00:37;99747.38;;;6.45;90.93
4022;BME280;2025;48.260;16.432;2023-11-21T22:03:05;99753.84;;;6.51;90.06
4022;BME280;2025;48.260;16.432;2023-11-21T22:05:33;99751.91;;;6.53;90.19
4022;BME280;2025;48.260;16.432;2023-11-21T22:08:00;99757.28;;;6.51;90.02
4022;BME280;2025;48.260;16.432;2023-11-21T22:10:28;99756.31;;;6.52;89.67
4022;BME280;2025;48.260;16.432;2023-11-21T22:12:55;99757.28;;;6.51;89.67
4022;BME280;2025;48.260;16.432;2023-11-21T22:15:24;99757.00;;;6.54;89.34
4022;BME280;2025;48.260;16.432;2023-11-21T22:17:51;99758.69;;;6.46;89.80
4022;BME280;2025;48.260;16.432;2023-11-21T22:20:18;99765.25;;;6.50;89.67
4022;BME280;2025;48.260;16.432;2023-11-21T22:22:47;99775.03;;;6.48;90.28